Airfield :
LOGIN :

Register | Disclaimer

   EN    FR    IT 

 










Legend :    VFR   Marginal VFR   IFR   Intensive IFR   Very Intensive IFR
Visi :
Ceiling :
>= 8 km
>= 3000ft
5 to 8 km
1000 to 3000 ft
1500m to 5 km
500 to 1000 ft
800 to 1500m
200 to 500 ft
< 800m
< 200 ft
Symbols :   Thunderstorms  Fog  Heavy snow  Heavy precipitations  Wind > 20 kt
SIGMETs :     Misc.  Thunderstorms  Icing  Turbulence  Mountain Waves  Volcanic Ashes






- Airport Elevation : 82 ft
- IATA code : ALG


DAAG - Alger Houari Boumedienne

CURRENT METAR :
  • 181500Z 05006KT 010V090 9999 FEW023 SCT200 21/09 Q1014

EXPIRED METARs :
  • 181430Z 05006KT 010V110 9999 FEW023 21/10 Q1014
  • 181400Z 03010KT 360V060 9999 FEW023 21/10 Q1014
  • 181330Z 03008KT 340V070 9999 FEW023 21/11 Q1014
  • 181300Z 03009KT 360V080 9999 FEW023 22/11 Q1014
  • 181230Z 03007KT 350V080 9999 FEW023 22/10 Q1014
  • 181200Z 02008KT 330V090 9999 FEW023 22/12 Q1015
  • 181130Z 05007KT 010V090 9999 FEW023 21/11 Q1015
  • 181100Z 04008KT 360V090 9999 FEW023 20/11 Q1015
  • 181030Z 03007KT 360V070 CAVOK 21/10 Q1015
  • 181000Z 07004KT 340V140 CAVOK 20/11 Q1015

TAF TAF DAAG
Valid from the 18 at 12:00 until the 19 at 12:00 UTC


181100Z 1812/1912 04010KT 9999 FEW023
BECMG 1819/1821 VRB02KT
BECMG 1908/1910 04012KT



MET'MAP, your aeronautical weather chart ! - Copyright ORBIFLY December 2007 - Disclaimer

ORBIFLY MET'MAP TEAM :

Programming & Development : Alexandra Zaïnal
Original concept : Baudouin d'Aumeries
Technical & hardware support : Manuel Goepfert
Assistance : Marc-Olivier Méhu




SOURCES & CREDITS :

   NOAA